Abu Dhabi International Airport

OMAA | AUH

Abu Dhabi , Abu-Dhabi , United Arab Emirates

Monday, January 20th, 2020 | 00:00

Weather

OMAA 191900Z 10005KT CAVOK 19/11 Q1017 NOSIG

Charts

No Charts Available

Gates

53 Available

Runways

2 Available

Events

No events for this airport


New event